Time;durP1;ratioP1;P1;durP2;ratioP2;P2;SDS_P1;SDS_P2;PMS_P1;PMS_P2;Temp;Humidity;BMP_temperature;BMP_pressure;BME280_temperature;BME280_humidity;BME280_pressure;Samples;Min_cycle;Max_cycle;Signal;HPM_P1;HPM_P2
2022/11/13 17:51:17;;;;;;;17.30;8.43;;;;;;;43.07;33.10;101109.53;5164850;27;20514;-73
2022/11/13 17:53:43;;;;;;;16.97;7.10;;;;;;;43.16;33.30;101116.50;5144106;27;20439;-75
2022/11/13 17:56:10;;;;;;;13.97;7.90;;;;;;;43.18;33.39;101113.44;5123838;27;21007;-74
2022/11/13 17:58:40;;;;;;;9.97;7.67;;;;;;;43.11;33.34;101110.47;5147112;27;20184;-73
2022/11/13 18:01:10;;;;;;;18.03;10.03;;;;;;;43.15;33.19;101114.09;5151122;27;20438;-73
2022/11/13 18:03:38;;;;;;;14.27;6.17;;;;;;;42.99;33.37;101111.22;5113667;27;20440;-72
2022/11/13 18:06:15;;;;;;;18.10;7.80;;;;;;;42.91;33.20;101101.94;5132374;27;20495;-72
2022/11/13 18:08:42;;;;;;;13.53;8.33;;;;;;;43.01;33.20;101106.22;5115624;27;20421;-74
2022/11/13 18:11:18;;;;;;;20.70;9.47;;;;;;;42.87;33.43;101105.69;5129965;27;20470;-74
2022/11/13 18:13:45;;;;;;;16.17;7.80;;;;;;;42.97;33.12;101112.63;5114595;27;20821;-71
2022/11/13 18:16:15;;;;;;;13.27;7.10;;;;;;;42.92;33.42;101117.19;5124387;27;20474;-72
2022/11/13 18:18:41;;;;;;;15.77;7.57;;;;;;;42.81;33.41;101118.72;5107576;27;20946;-74
2022/11/13 18:21:09;;;;;;;17.33;8.53;;;;;;;42.75;33.70;101124.72;5130548;27;20399;-72
2022/11/13 18:23:35;;;;;;;16.63;8.83;;;;;;;42.90;33.52;101124.09;5130506;27;20958;-72
2022/11/13 18:26:16;;;;;;;19.27;8.50;;;;;;;42.76;33.74;101127.13;5114690;27;20459;-72
2022/11/13 18:28:43;;;;;;;12.87;7.90;;;;;;;42.88;33.82;101116.25;5126964;27;20488;-72
2022/11/13 18:31:14;;;;;;;12.27;7.43;;;;;;;42.84;33.94;101112.59;5081811;28;20456;-71
2022/11/13 18:33:41;;;;;;;13.17;9.30;;;;;;;42.76;34.20;101115.41;5111293;27;20446;-70
2022/11/13 18:36:07;;;;;;;12.77;7.33;;;;;;;42.56;34.52;101120.50;5111699;28;20435;-71
2022/11/13 18:38:34;;;;;;;12.87;8.40;;;;;;;42.68;33.94;101132.66;5129844;28;20435;-71
2022/11/13 18:41:14;;;;;;;10.97;5.70;;;;;;;42.56;34.13;101136.06;5094794;28;20417;-71
2022/11/13 18:43:45;;;;;;;12.80;7.73;;;;;;;42.75;33.65;101136.44;5111408;28;20435;-70
2022/11/13 18:46:13;;;;;;;20.00;7.93;;;;;;;42.48;34.22;101139.66;5099950;27;20423;-71
2022/11/13 18:48:41;;;;;;;18.73;8.00;;;;;;;42.68;33.75;101143.56;5131249;27;20438;-70
2022/11/13 18:51:13;;;;;;;14.37;9.60;;;;;;;42.77;33.97;101142.34;5150333;27;20474;-70
2022/11/13 18:53:40;;;;;;;13.50;7.03;;;;;;;42.72;33.65;101139.81;5131828;27;20487;-70
2022/11/13 18:56:08;;;;;;;17.30;9.20;;;;;;;42.78;33.81;101143.94;5111338;28;20832;-70
2022/11/13 18:58:39;;;;;;;15.97;7.80;;;;;;;42.78;33.90;101146.66;5110961;28;20439;-70
2022/11/13 19:01:29;;;;;;;11.47;8.13;;;;;;;42.86;33.59;101142.28;5114469;27;20410;-70
2022/11/13 19:04:00;;;;;;;16.33;7.27;;;;;;;42.84;33.46;101137.16;5127711;27;20502;-70
2022/11/13 19:06:26;;;;;;;13.33;8.50;;;;;;;42.87;33.72;101132.97;5114244;27;20940;-71
2022/11/13 19:09:15;;;;;;;18.70;7.80;;;;;;;42.84;33.59;101139.88;5136391;27;20462;-71
2022/11/13 19:11:41;;;;;;;15.73;9.07;;;;;;;42.90;33.65;101141.25;5117623;27;20411;-71
2022/11/13 19:14:09;;;;;;;15.17;7.10;;;;;;;42.92;32.98;101147.22;5130146;27;20404;-70
2022/11/13 19:16:39;;;;;;;11.80;6.53;;;;;;;42.85;33.45;101152.41;5104363;27;20426;-75
2022/11/13 19:19:12;;;;;;;11.73;7.50;;;;;;;42.87;33.33;101146.63;5103296;27;20447;-71
2022/11/13 19:21:39;;;;;;;12.57;7.93;;;;;;;42.75;33.68;101150.06;5122662;27;20585;-72
2022/11/13 19:24:05;;;;;;;11.30;7.07;;;;;;;42.69;33.77;101151.41;5105863;27;20509;-72
2022/11/13 19:26:31;;;;;;;10.53;7.63;;;;;;;42.75;33.65;101161.00;5104780;27;20427;-72
2022/11/13 19:28:57;;;;;;;10.43;8.40;;;;;;;42.74;33.60;101158.59;5103782;27;20410;-72
2022/11/13 19:31:26;;;;;;;13.33;7.60;;;;;;;42.85;33.31;101159.81;5104002;27;20860;-70
2022/11/13 19:33:57;;;;;;;14.67;9.30;;;;;;;42.78;33.40;101159.50;5076914;28;20424;-70
2022/11/13 19:36:24;;;;;;;20.00;9.93;;;;;;;42.95;33.40;101173.03;5107423;27;20479;-70
2022/11/13 19:38:51;;;;;;;16.23;9.57;;;;;;;43.00;33.26;101175.59;5108484;27;20469;-70
2022/11/13 19:41:19;;;;;;;15.87;8.73;;;;;;;42.83;33.49;101181.16;5089592;27;20450;-70
2022/11/13 19:43:45;;;;;;;11.43;7.53;;;;;;;42.92;33.47;101188.16;5107839;27;20803;-70
2022/11/13 19:46:13;;;;;;;11.20;7.73;;;;;;;42.98;33.77;101191.50;5107996;27;21020;-70
2022/11/13 19:48:41;;;;;;;29.23;7.90;;;;;;;43.01;33.34;101198.22;5088296;27;20439;-70
2022/11/13 19:51:14;;;;;;;11.20;7.43;;;;;;;42.81;33.57;101205.25;5086947;28;20475;-70
2022/11/13 19:53:45;;;;;;;11.47;7.07;;;;;;;42.80;33.23;101200.94;5103609;28;20424;-70
2022/11/13 19:56:13;;;;;;;12.67;7.13;;;;;;;42.87;33.38;101209.38;5102769;28;20409;-70
2022/11/13 19:58:42;;;;;;;17.63;8.13;;;;;;;42.64;33.52;101209.69;5100481;28;20444;-69
2022/11/13 20:01:20;;;;;;;15.80;7.80;;;;;;;42.74;33.87;101216.69;5082690;28;20412;-70
2022/11/13 20:03:46;;;;;;;16.10;8.40;;;;;;;42.90;33.60;101214.94;5094267;28;20401;-70
2022/11/13 20:06:15;;;;;;;17.90;6.67;;;;;;;42.84;33.55;101224.47;5086600;28;20949;-70
2022/11/13 20:08:41;;;;;;;10.63;5.67;;;;;;;42.84;33.65;101224.47;5108321;28;20412;-71
2022/11/13 20:11:09;;;;;;;12.60;7.70;;;;;;;42.83;33.45;101222.06;5102557;28;20447;-70
2022/11/13 20:13:37;;;;;;;14.50;6.10;;;;;;;42.87;33.47;101223.81;5086073;28;20443;-71
2022/11/13 20:16:05;;;;;;;11.73;7.30;;;;;;;42.92;33.30;101234.53;5089610;28;20482;-74
2022/11/13 20:18:31;;;;;;;17.37;8.90;;;;;;;42.80;33.58;101228.22;5101369;28;20412;-71
2022/11/13 20:20:57;;;;;;;14.40;8.03;;;;;;;42.78;33.84;101233.97;5103455;28;20423;-71
2022/11/13 20:23:24;;;;;;;13.90;8.63;;;;;;;42.90;33.54;101239.50;5091066;28;20853;-72
2022/11/13 20:26:03;;;;;;;13.33;7.90;;;;;;;42.85;33.75;101247.13;5090842;28;20421;-73
2022/11/13 20:28:30;;;;;;;13.27;7.00;;;;;;;42.76;34.04;101243.63;5090674;28;20429;-73
2022/11/13 20:31:06;;;;;;;19.43;8.23;;;;;;;42.90;33.69;101255.09;5090604;28;20457;-74
2022/11/13 20:33:33;;;;;;;12.60;7.47;;;;;;;42.62;34.12;101260.25;5090645;28;20416;-73
2022/11/13 20:36:00;;;;;;;16.77;8.80;;;;;;;42.71;34.08;101263.72;5090543;28;20440;-73
2022/11/13 20:38:27;;;;;;;17.33;6.80;;;;;;;42.69;33.75;101259.75;5102095;28;20416;-73
2022/11/13 20:40:53;;;;;;;13.40;8.40;;;;;;;42.72;33.80;101245.41;5112827;28;20912;-71
2022/11/13 20:43:19;;;;;;;12.90;7.70;;;;;;;42.52;34.26;101246.97;5112512;28;20408;-71
2022/11/13 20:45:45;;;;;;;19.00;6.37;;;;;;;42.45;34.55;101252.94;5112594;28;20982;-71
2022/11/13 20:48:11;;;;;;;17.33;7.40;;;;;;;42.34;34.44;101257.94;5095841;28;20420;-72
2022/11/13 20:50:37;;;;;;;10.60;6.30;;;;;;;42.33;34.67;101259.06;5112316;28;20484;-71
2022/11/13 20:53:04;;;;;;;15.10;8.57;;;;;;;42.32;34.78;101246.56;5112465;28;20790;-72
2022/11/13 20:55:30;;;;;;;17.87;7.03;;;;;;;42.08;35.01;101241.69;5112501;28;20416;-71
2022/11/13 20:57:56;;;;;;;14.63;5.97;;;;;;;42.05;35.19;101231.44;5114100;28;20892;-71
2022/11/13 21:00:23;;;;;;;12.80;6.60;;;;;;;42.17;34.87;101227.22;5114105;28;20755;-72
2022/11/13 21:02:50;;;;;;;17.50;6.73;;;;;;;42.27;34.68;101216.78;5112723;28;20944;-73
2022/11/13 21:05:16;;;;;;;15.70;7.33;;;;;;;42.22;34.87;101230.56;5112291;28;20412;-73
2022/11/13 21:07:42;;;;;;;17.43;8.33;;;;;;;42.31;34.87;101233.28;5112392;28;20412;-73
2022/11/13 21:10:08;;;;;;;13.33;7.37;;;;;;;42.25;34.96;101237.31;5112311;28;20479;-73
2022/11/13 21:12:35;;;;;;;18.90;6.90;;;;;;;42.14;35.28;101234.91;5112327;28;20412;-73
2022/11/13 21:15:01;;;;;;;12.90;6.37;;;;;;;42.14;35.30;101234.13;5113765;28;20527;-72
2022/11/13 21:17:27;;;;;;;15.30;5.60;;;;;;;42.14;35.63;101232.19;5112059;28;20912;-71
2022/11/13 21:19:52;;;;;;;22.87;6.80;;;;;;;42.30;35.16;101231.69;5112158;28;20548;-73
2022/11/13 21:22:18;;;;;;;30.53;8.83;;;;;;;42.21;35.17;101230.91;5113569;28;20515;-72
2022/11/13 21:24:44;;;;;;;11.93;6.00;;;;;;;42.31;34.89;101234.06;5111875;28;20477;-72
2022/11/13 21:27:10;;;;;;;13.00;6.40;;;;;;;42.09;35.03;101226.13;5113693;28;20396;-72
2022/11/13 21:29:36;;;;;;;13.83;5.57;;;;;;;42.12;35.21;101233.66;5108164;28;20514;-72
2022/11/13 21:32:02;;;;;;;10.23;6.30;;;;;;;42.29;35.01;101230.84;5089762;28;20504;-74
2022/11/13 21:34:28;;;;;;;15.77;6.47;;;;;;;42.46;34.54;101229.97;5091226;28;20162;-74
2022/11/13 21:36:54;;;;;;;25.03;7.20;;;;;;;42.53;34.44;101229.47;5091234;28;20437;-74
2022/11/13 21:39:20;;;;;;;13.17;4.67;;;;;;;42.34;34.95;101232.59;5108586;28;20170;-72
2022/11/13 21:41:46;;;;;;;13.57;5.57;;;;;;;42.29;34.67;101240.97;5111505;28;20393;-73
2022/11/13 21:44:12;;;;;;;12.43;6.13;;;;;;;42.40;34.71;101237.53;5109883;28;20813;-72
2022/11/13 21:46:40;;;;;;;12.30;7.37;;;;;;;42.37;34.47;101243.66;5109918;28;20992;-74
2022/11/13 21:49:10;;;;;;;9.97;5.90;;;;;;;42.45;34.27;101244.75;5113696;28;20224;-73
2022/11/13 21:51:37;;;;;;;19.27;7.73;;;;;;;42.45;34.43;101247.47;5115202;28;20423;-73
2022/11/13 21:54:04;;;;;;;13.20;6.73;;;;;;;42.24;34.40;101247.44;5114964;28;20453;-73
2022/11/13 21:56:31;;;;;;;13.23;6.77;;;;;;;42.29;34.29;101243.69;5133935;28;20391;-73
2022/11/13 21:58:57;;;;;;;18.23;7.13;;;;;;;42.40;34.54;101240.28;5115202;28;20419;-71
2022/11/13 22:01:24;;;;;;;12.00;6.90;;;;;;;42.33;34.37;101242.72;5115529;28;20955;-73
2022/11/13 22:03:50;;;;;;;26.90;7.67;;;;;;;42.38;34.35;101239.81;5115080;28;20419;-73
2022/11/13 22:06:21;;;;;;;9.67;6.27;;;;;;;42.33;34.37;101241.91;5115002;28;20797;-73
2022/11/13 22:09:13;;;;;;;13.80;6.90;;;;;;;42.36;34.48;101247.53;5115070;28;20425;-73
2022/11/13 22:11:40;;;;;;;10.83;4.90;;;;;;;42.31;34.45;101244.19;5115211;28;20929;-71
2022/11/13 22:14:06;;;;;;;12.00;5.50;;;;;;;42.25;34.42;101238.13;5133561;28;20503;-72
2022/11/13 22:16:34;;;;;;;13.20;6.60;;;;;;;42.22;34.77;101236.03;5114811;28;20446;-74
2022/11/13 22:19:02;;;;;;;11.37;6.43;;;;;;;42.47;34.30;101231.56;5133559;28;20392;-73
2022/11/13 22:21:29;;;;;;;22.13;6.53;;;;;;;42.22;34.71;101233.31;5133507;28;20518;-73
2022/11/13 22:23:56;;;;;;;14.23;5.93;;;;;;;42.26;34.72;101230.72;5114928;28;20902;-73
2022/11/13 22:26:24;;;;;;;14.17;5.90;;;;;;;42.29;34.95;101222.69;5097768;28;20494;-73
2022/11/13 22:28:50;;;;;;;12.93;5.47;;;;;;;42.38;34.64;101228.91;5114815;28;20435;-73
2022/11/13 22:31:22;;;;;;;10.20;5.80;;;;;;;42.15;34.63;101216.63;5133565;28;20434;-71
2022/11/13 22:33:49;;;;;;;10.60;5.60;;;;;;;42.09;34.74;101210.56;5115891;28;20746;-71
2022/11/13 22:36:19;;;;;;;9.03;5.30;;;;;;;42.07;35.00;101210.09;5115668;27;20952;-72
2022/11/13 22:38:45;;;;;;;14.73;6.70;;;;;;;42.13;35.00;101211.50;5118577;27;20503;-72
2022/11/13 22:41:21;;;;;;;11.63;6.50;;;;;;;41.89;35.36;101211.28;5108208;28;20455;-71
2022/11/13 22:43:50;;;;;;;11.70;5.33;;;;;;;41.63;35.45;101211.34;5098052;28;20444;-71
2022/11/13 22:46:21;;;;;;;11.00;5.30;;;;;;;41.77;35.37;101214.69;5116583;28;20440;-72
2022/11/13 22:48:48;;;;;;;11.43;6.10;;;;;;;41.96;34.91;101208.84;5097908;28;20435;-72
2022/11/13 22:51:17;;;;;;;10.70;6.30;;;;;;;41.92;34.85;101207.09;5094390;28;20563;-73
2022/11/13 22:53:51;;;;;;;10.50;6.80;;;;;;;42.03;34.89;101219.25;5096280;28;20437;-73
2022/11/13 22:56:18;;;;;;;12.53;6.23;;;;;;;42.10;34.88;101220.34;5107295;28;20408;-73
2022/11/13 22:58:44;;;;;;;10.13;6.07;;;;;;;42.03;35.30;101216.53;5115218;28;20455;-73
2022/11/13 23:01:15;;;;;;;14.30;6.10;;;;;;;42.30;34.54;101216.13;5114676;28;20994;-74
2022/11/13 23:03:43;;;;;;;11.30;6.43;;;;;;;42.18;34.78;101218.75;5097857;28;20831;-74
2022/11/13 23:06:10;;;;;;;15.73;7.47;;;;;;;42.18;34.53;101223.41;5115084;28;20812;-73
2022/11/13 23:08:37;;;;;;;11.97;5.40;;;;;;;41.97;34.78;101220.56;5114599;28;20813;-74
2022/11/13 23:11:34;;;;;;;13.90;6.80;;;;;;;42.10;34.74;101219.53;5116233;28;21002;-73
2022/11/13 23:14:02;;;;;;;11.00;7.23;;;;;;;42.09;34.72;101220.66;5114547;28;20921;-74
2022/11/13 23:16:29;;;;;;;11.80;6.03;;;;;;;42.28;34.32;101218.34;5097792;28;20423;-73
2022/11/13 23:18:57;;;;;;;11.93;6.20;;;;;;;42.17;34.50;101216.31;5114760;28;20491;-74
2022/11/13 23:21:24;;;;;;;13.43;7.20;;;;;;;42.17;34.64;101211.66;5114393;28;20436;-73
2022/11/13 23:23:51;;;;;;;15.33;7.00;;;;;;;42.29;34.33;101203.59;5097588;28;20416;-71
2022/11/13 23:26:17;;;;;;;9.93;5.53;;;;;;;42.21;34.60;101190.81;5097533;28;20419;-71
2022/11/13 23:28:44;;;;;;;12.87;6.40;;;;;;;42.08;34.59;101183.63;5097346;28;20450;-71
2022/11/13 23:31:10;;;;;;;18.87;9.93;;;;;;;42.25;34.36;101189.03;5114201;28;20483;-71
2022/11/13 23:33:37;;;;;;;12.30;5.90;;;;;;;42.38;34.41;101189.94;5116064;28;20905;-71
2022/11/13 23:36:04;;;;;;;13.60;6.50;;;;;;;42.28;34.36;101185.66;5115740;28;20524;-71
2022/11/13 23:38:30;;;;;;;22.40;6.27;;;;;;;42.34;34.67;101176.16;5113932;28;20550;-72
2022/11/13 23:40:58;;;;;;;8.13;5.43;;;;;;;42.11;35.01;101170.16;5115639;28;20487;-73
2022/11/13 23:43:25;;;;;;;12.60;6.97;;;;;;;42.31;34.46;101176.81;5113936;28;20973;-74
2022/11/13 23:45:52;;;;;;;12.27;5.23;;;;;;;42.33;34.71;101179.22;5113819;28;20914;-73
2022/11/13 23:48:18;;;;;;;14.50;6.30;;;;;;;42.29;34.89;101175.53;5114058;28;20426;-73
2022/11/13 23:50:45;;;;;;;18.93;7.27;;;;;;;42.19;34.71;101175.94;5113745;28;20929;-72
2022/11/13 23:53:11;;;;;;;14.53;5.60;;;;;;;42.27;34.53;101170.41;5115399;28;20872;-72
2022/11/13 23:55:39;;;;;;;11.07;6.13;;;;;;;42.33;34.48;101158.19;5113637;28;20432;-72
2022/11/13 23:58:09;;;;;;;15.30;7.23;;;;;;;42.37;34.63;101163.78;5115325;28;20418;-72
